createdAt,value
2018-07-26T00:01:13.875Z,98265.00
2018-07-26T00:03:42.494Z,98263.00
2018-07-26T00:06:11.172Z,98266.00
2018-07-26T00:08:39.863Z,98243.00
2018-07-26T00:11:08.561Z,98266.00
2018-07-26T00:13:37.325Z,98267.00
2018-07-26T00:16:06.311Z,98266.00
2018-07-26T00:18:35.039Z,98264.00
2018-07-26T00:21:03.958Z,98259.00
2018-07-26T00:23:32.480Z,98254.00
2018-07-26T00:26:01.139Z,98252.00
2018-07-26T00:28:29.813Z,98251.00
2018-07-26T00:30:58.271Z,98252.00
2018-07-26T00:33:26.925Z,98253.00
2018-07-26T00:35:55.637Z,98251.00
2018-07-26T00:38:24.287Z,98247.00
2018-07-26T00:40:53.011Z,98251.00
2018-07-26T00:43:21.653Z,98255.00
2018-07-26T00:45:50.315Z,98256.00
2018-07-26T00:48:18.930Z,98253.00
2018-07-26T00:50:47.530Z,98209.00
2018-07-26T00:53:16.201Z,98242.00
2018-07-26T00:55:44.970Z,98242.00
2018-07-26T00:58:13.576Z,98243.00
2018-07-26T01:00:42.255Z,98232.00
2018-07-26T01:03:10.925Z,98231.00
2018-07-26T01:05:39.525Z,98226.00
2018-07-26T01:08:08.128Z,98225.00
2018-07-26T01:10:36.787Z,98228.00
2018-07-26T01:13:05.483Z,98227.00
2018-07-26T01:15:34.065Z,98236.00
2018-07-26T01:18:02.759Z,98238.00
2018-07-26T01:20:31.384Z,98239.00
2018-07-26T01:22:59.830Z,98238.00
2018-07-26T01:25:28.533Z,98242.00
2018-07-26T01:27:57.049Z,98236.00
2018-07-26T01:30:25.780Z,98232.00
2018-07-26T01:32:54.488Z,98230.00
2018-07-26T01:35:23.128Z,98232.00
2018-07-26T01:37:51.775Z,98236.00
2018-07-26T01:40:20.264Z,98232.00
2018-07-26T01:43:06.423Z,98242.00
2018-07-26T01:45:35.157Z,98239.00
2018-07-26T01:48:04.043Z,98237.00
2018-07-26T01:50:32.738Z,98239.00
2018-07-26T01:53:01.451Z,98234.00
2018-07-26T01:55:30.086Z,98226.00
2018-07-26T01:57:58.736Z,98226.00
2018-07-26T02:00:27.403Z,98227.00
2018-07-26T02:02:57.051Z,98222.00
2018-07-26T02:05:25.658Z,98227.00
2018-07-26T02:07:54.288Z,98222.00
2018-07-26T02:10:22.931Z,98223.00
2018-07-26T02:12:51.796Z,98228.00
2018-07-26T02:15:20.208Z,98225.00
2018-07-26T02:17:48.998Z,98222.00
2018-07-26T02:20:17.635Z,98223.00
2018-07-26T02:22:46.093Z,98226.00
2018-07-26T02:25:14.740Z,98222.00
2018-07-26T02:27:43.398Z,98217.00
2018-07-26T02:30:12.698Z,98221.00
2018-07-26T02:32:41.202Z,98224.00
2018-07-26T02:35:09.851Z,98226.00
2018-07-26T02:37:38.509Z,98223.00
2018-07-26T02:40:07.288Z,98228.00
2018-07-26T02:42:36.004Z,98222.00
2018-07-26T02:45:05.158Z,98228.00
2018-07-26T02:47:33.853Z,98221.00
2018-07-26T02:50:02.641Z,98218.00
2018-07-26T02:52:31.331Z,98221.00
2018-07-26T02:55:00.173Z,98226.00
2018-07-26T02:57:28.852Z,98229.00
2018-07-26T02:59:57.394Z,98230.00
2018-07-26T03:02:26.123Z,98237.00
2018-07-26T03:04:54.925Z,98243.00
2018-07-26T03:07:23.619Z,98237.00
2018-07-26T03:09:52.363Z,98240.00
2018-07-26T03:12:21.181Z,98239.00
2018-07-26T03:14:50.003Z,98241.00
2018-07-26T03:17:18.775Z,98244.00
2018-07-26T03:19:47.578Z,98241.00
2018-07-26T03:22:16.365Z,98242.00
2018-07-26T03:24:45.261Z,98239.00
2018-07-26T03:27:14.036Z,98239.00
2018-07-26T03:29:42.799Z,98237.00
2018-07-26T03:32:11.889Z,98243.00
2018-07-26T03:34:40.600Z,98244.00
2018-07-26T03:37:09.272Z,98238.00
2018-07-26T03:39:37.963Z,98246.00
2018-07-26T03:42:06.703Z,98250.00
2018-07-26T03:44:35.430Z,98250.00
2018-07-26T03:47:04.171Z,98252.00
2018-07-26T03:49:32.808Z,98259.00
2018-07-26T03:52:01.623Z,98261.00
2018-07-26T03:54:30.380Z,98261.00
2018-07-26T03:57:00.023Z,98263.00
2018-07-26T03:59:30.685Z,98259.00
2018-07-26T04:01:59.242Z,98257.00
2018-07-26T04:04:28.018Z,98256.00
2018-07-26T04:06:56.985Z,98259.00
2018-07-26T04:09:25.755Z,98254.00
2018-07-26T04:11:54.423Z,98257.00
2018-07-26T04:14:23.153Z,98260.00
2018-07-26T04:16:51.923Z,98262.00
2018-07-26T04:19:20.616Z,98257.00
2018-07-26T04:21:49.296Z,98256.00
2018-07-26T04:24:17.992Z,98256.00
2018-07-26T04:26:46.676Z,98264.00
2018-07-26T04:29:15.471Z,98267.00
2018-07-26T04:31:44.278Z,98267.00
2018-07-26T04:34:12.931Z,98269.00
2018-07-26T04:36:41.603Z,98266.00
2018-07-26T04:39:10.666Z,98263.00
2018-07-26T04:41:39.348Z,98262.00
2018-07-26T04:44:09.260Z,98261.00
2018-07-26T04:46:37.896Z,98256.00
2018-07-26T04:49:06.638Z,98255.00
2018-07-26T04:51:35.384Z,98259.00
2018-07-26T04:54:04.184Z,98255.00
2018-07-26T04:56:32.912Z,98259.00
2018-07-26T04:59:01.712Z,98260.00
2018-07-26T05:01:30.496Z,98259.00
2018-07-26T05:03:59.310Z,98261.00
2018-07-26T05:06:28.064Z,98269.00
2018-07-26T05:08:56.599Z,98277.00
2018-07-26T05:11:25.368Z,98270.00
2018-07-26T05:13:54.054Z,98269.00
2018-07-26T05:16:22.811Z,98269.00
2018-07-26T05:18:51.575Z,98279.00
2018-07-26T05:21:20.861Z,98282.00
2018-07-26T05:23:49.641Z,98286.00
2018-07-26T05:26:18.431Z,98280.00
2018-07-26T05:28:47.136Z,98285.00
2018-07-26T05:31:15.879Z,98293.00
2018-07-26T05:33:44.584Z,98294.00
2018-07-26T05:36:13.238Z,98293.00
2018-07-26T05:38:41.921Z,98299.00
2018-07-26T05:41:10.722Z,98296.00
2018-07-26T05:43:39.591Z,98298.00
2018-07-26T05:46:08.503Z,98300.00
2018-07-26T05:48:37.293Z,98299.00
2018-07-26T05:51:06.024Z,98301.00
2018-07-26T05:53:34.794Z,98302.00
2018-07-26T05:56:03.603Z,98300.00
2018-07-26T05:58:32.130Z,98309.00
2018-07-26T06:01:00.886Z,98309.00
2018-07-26T06:03:29.691Z,98307.00
2018-07-26T06:05:58.444Z,98300.00
2018-07-26T06:08:27.116Z,98305.00
2018-07-26T06:10:55.851Z,98302.00
2018-07-26T06:13:24.664Z,98300.00
2018-07-26T06:15:54.587Z,98299.00
2018-07-26T06:18:24.356Z,98303.00
2018-07-26T06:20:53.074Z,98301.00
2018-07-26T06:23:21.791Z,98298.00
2018-07-26T06:25:50.578Z,98304.00
2018-07-26T06:28:19.448Z,98302.00
2018-07-26T06:30:48.816Z,98307.00
2018-07-26T06:33:17.611Z,98311.00
2018-07-26T06:35:46.540Z,98308.00
2018-07-26T06:38:15.274Z,98311.00
2018-07-26T06:40:44.539Z,98310.00
2018-07-26T06:43:13.379Z,98314.00
2018-07-26T06:45:42.226Z,98314.00
2018-07-26T06:48:11.151Z,98317.00
2018-07-26T06:50:39.876Z,98314.00
2018-07-26T06:53:08.609Z,98321.00
2018-07-26T06:55:37.344Z,98319.00
2018-07-26T06:58:06.116Z,98318.00
2018-07-26T07:00:34.883Z,98315.00
2018-07-26T07:03:03.657Z,98314.00
2018-07-26T07:05:32.434Z,98317.00
2018-07-26T07:08:00.959Z,98316.00
2018-07-26T07:10:29.736Z,98313.00
2018-07-26T07:12:58.839Z,98315.00
2018-07-26T07:15:27.562Z,98317.00
2018-07-26T07:17:56.329Z,98318.00
2018-07-26T07:20:25.110Z,98314.00
2018-07-26T07:22:53.904Z,98318.00
2018-07-26T07:25:22.666Z,98316.00
2018-07-26T07:27:51.483Z,98318.00
2018-07-26T07:30:20.159Z,98318.00
2018-07-26T07:32:48.872Z,98317.00
2018-07-26T07:35:17.634Z,98312.00
2018-07-26T07:37:46.489Z,98319.00
2018-07-26T07:40:15.269Z,98317.00
2018-07-26T07:42:44.052Z,98323.00
2018-07-26T07:45:12.842Z,98313.00
2018-07-26T07:47:41.680Z,98314.00
2018-07-26T07:50:10.545Z,98312.00
2018-07-26T07:52:39.247Z,98310.00
2018-07-26T07:55:08.161Z,98310.00
2018-07-26T07:57:36.976Z,98307.00
2018-07-26T08:00:09.054Z,98307.00
2018-07-26T08:02:38.094Z,98247.00
2018-07-26T08:05:07.053Z,98302.00
2018-07-26T08:07:36.048Z,98301.00
2018-07-26T08:10:06.764Z,98303.00
2018-07-26T08:12:35.553Z,98304.00
2018-07-26T08:15:05.517Z,98304.00
2018-07-26T08:17:34.702Z,98306.00
2018-07-26T08:20:03.498Z,98301.00
2018-07-26T08:22:32.263Z,98293.00
2018-07-26T08:25:00.947Z,98304.00
2018-07-26T08:27:29.758Z,98294.00
2018-07-26T08:29:58.548Z,98295.00
2018-07-26T08:32:27.347Z,98297.00
2018-07-26T08:34:56.595Z,98287.00
2018-07-26T08:37:26.411Z,98294.00
2018-07-26T08:39:55.966Z,98296.00
2018-07-26T08:42:24.916Z,98295.00
2018-07-26T08:44:53.756Z,98297.00
2018-07-26T08:47:22.656Z,98293.00
2018-07-26T08:49:51.408Z,98295.00
2018-07-26T08:52:20.968Z,98292.00
2018-07-26T08:54:49.720Z,98290.00
2018-07-26T08:57:18.538Z,98296.00
2018-07-26T08:59:46.999Z,98294.00
2018-07-26T09:02:15.822Z,98298.00
2018-07-26T09:04:44.520Z,98295.00
2018-07-26T09:07:13.308Z,98294.00
2018-07-26T09:09:42.189Z,98292.00
2018-07-26T09:12:11.108Z,98296.00
2018-07-26T09:14:39.799Z,98290.00
2018-07-26T09:17:08.829Z,98296.00
2018-07-26T09:19:38.381Z,98284.00
2018-07-26T09:22:07.441Z,98289.00
2018-07-26T09:24:40.108Z,98283.00
2018-07-26T09:27:10.546Z,98281.00
2018-07-26T09:29:39.481Z,98280.00
2018-07-26T09:32:08.773Z,98273.00
2018-07-26T09:34:37.726Z,98276.00
2018-07-26T09:37:06.679Z,98273.00
2018-07-26T09:39:35.553Z,98275.00
2018-07-26T09:42:04.266Z,98274.00
2018-07-26T09:44:33.162Z,98266.00
2018-07-26T09:47:01.870Z,98267.00
2018-07-26T09:49:30.583Z,98262.00
2018-07-26T09:51:59.332Z,98265.00
2018-07-26T09:54:28.127Z,98266.00
2018-07-26T09:56:56.911Z,98261.00
2018-07-26T09:59:25.519Z,98258.00
2018-07-26T10:01:54.186Z,98258.00
2018-07-26T10:04:22.840Z,98256.00
2018-07-26T10:06:51.652Z,98256.00
2018-07-26T10:09:20.339Z,98261.00
2018-07-26T10:11:48.839Z,98256.00
2018-07-26T10:14:17.571Z,98258.00
2018-07-26T10:16:46.351Z,98248.00
2018-07-26T10:19:15.076Z,98245.00
2018-07-26T10:21:43.722Z,98246.00
2018-07-26T10:24:12.477Z,98245.00
2018-07-26T10:26:41.351Z,98248.00
2018-07-26T10:29:10.175Z,98244.00
2018-07-26T10:31:38.894Z,98244.00
2018-07-26T10:34:07.613Z,98240.00
2018-07-26T10:36:36.257Z,98240.00
2018-07-26T10:39:08.268Z,98235.00
2018-07-26T10:41:36.959Z,98236.00
2018-07-26T10:44:05.746Z,98238.00
2018-07-26T10:46:35.199Z,98233.00
2018-07-26T10:49:04.212Z,98230.00
2018-07-26T10:51:33.221Z,98236.00
2018-07-26T10:54:01.734Z,98231.00
2018-07-26T10:56:30.536Z,98235.00
2018-07-26T10:58:59.213Z,98239.00
2018-07-26T11:01:28.081Z,98235.00
2018-07-26T11:03:56.744Z,98234.00
2018-07-26T11:06:25.436Z,98237.00
2018-07-26T11:08:54.146Z,98234.00
2018-07-26T11:11:22.878Z,98234.00
2018-07-26T11:13:51.633Z,98235.00
2018-07-26T11:16:20.470Z,98229.00
2018-07-26T11:18:49.178Z,98231.00
2018-07-26T11:21:17.854Z,98232.00
2018-07-26T11:23:47.567Z,98237.00
2018-07-26T11:26:16.916Z,98224.00
2018-07-26T11:28:45.766Z,98229.00
2018-07-26T11:31:14.465Z,98219.00
2018-07-26T11:33:43.201Z,98219.00
2018-07-26T11:36:11.918Z,98213.00
2018-07-26T11:38:40.691Z,98210.00
2018-07-26T11:41:09.512Z,98214.00
2018-07-26T11:43:38.308Z,98209.00
2018-07-26T11:46:07.120Z,98214.00
2018-07-26T11:48:35.864Z,98214.00
2018-07-26T11:51:04.780Z,98204.00
2018-07-26T11:53:33.611Z,98200.00
2018-07-26T11:56:02.489Z,98200.00
2018-07-26T11:58:31.158Z,98203.00
2018-07-26T12:01:00.040Z,98198.00
2018-07-26T12:03:28.878Z,98197.00
2018-07-26T12:05:57.687Z,98201.00
2018-07-26T12:08:26.516Z,98196.00
2018-07-26T12:10:55.331Z,98193.00
2018-07-26T12:13:24.214Z,98193.00
2018-07-26T12:15:53.084Z,98191.00
2018-07-26T12:18:22.842Z,98192.00
2018-07-26T12:20:51.411Z,98190.00
2018-07-26T12:23:20.143Z,98186.00
2018-07-26T12:25:48.911Z,98178.00
2018-07-26T12:28:17.668Z,98181.00
2018-07-26T12:30:46.393Z,98180.00
2018-07-26T12:33:15.090Z,98174.00
2018-07-26T12:35:43.975Z,98167.00
2018-07-26T12:38:12.733Z,98169.00
2018-07-26T12:40:41.255Z,98169.00
2018-07-26T12:43:10.083Z,98169.00
2018-07-26T12:45:38.939Z,98167.00
2018-07-26T12:48:08.110Z,98167.00
2018-07-26T12:50:37.518Z,98168.00
2018-07-26T12:53:06.434Z,98163.00
2018-07-26T12:55:35.285Z,98153.00
2018-07-26T12:58:04.053Z,98156.00
2018-07-26T13:00:34.988Z,98151.00
2018-07-26T13:03:04.604Z,98148.00
2018-07-26T13:05:33.356Z,98138.00
2018-07-26T13:08:03.349Z,98130.00
2018-07-26T13:10:32.194Z,98132.00
2018-07-26T13:13:01.029Z,98137.00
2018-07-26T13:15:30.408Z,98134.00
2018-07-26T13:17:59.587Z,98128.00
2018-07-26T13:20:28.338Z,98125.00
2018-07-26T13:22:57.033Z,98126.00
2018-07-26T13:28:01.420Z,98119.00
2018-07-26T13:30:31.541Z,98117.00
2018-07-26T13:33:01.739Z,98111.00
2018-07-26T13:35:30.512Z,98117.00
2018-07-26T13:37:59.439Z,98117.00
2018-07-26T13:40:28.204Z,98112.00
2018-07-26T13:42:57.591Z,98111.00
2018-07-26T13:45:26.285Z,98108.00
2018-07-26T13:47:54.990Z,98111.00
2018-07-26T13:50:23.730Z,98113.00
2018-07-26T13:52:52.574Z,98112.00
2018-07-26T13:55:21.905Z,98111.00
2018-07-26T13:57:50.605Z,98106.00
2018-07-26T14:00:19.974Z,98104.00
2018-07-26T14:02:48.771Z,98100.00
2018-07-26T14:05:17.580Z,98098.00
2018-07-26T14:07:46.253Z,98093.00
2018-07-26T14:10:15.031Z,98089.00
2018-07-26T14:12:43.779Z,98083.00
2018-07-26T14:15:12.302Z,98075.00
2018-07-26T14:17:41.036Z,98080.00
2018-07-26T14:20:11.680Z,98083.00
2018-07-26T14:22:40.959Z,98081.00
2018-07-26T14:25:09.855Z,98077.00
2018-07-26T14:27:38.680Z,98079.00
2018-07-26T14:30:08.640Z,98077.00
2018-07-26T14:32:37.408Z,98077.00
2018-07-26T14:35:06.381Z,98072.00
2018-07-26T14:37:35.160Z,98073.00
2018-07-26T14:40:06.002Z,98076.00
2018-07-26T14:42:34.854Z,98075.00
2018-07-26T14:45:04.384Z,98071.00
2018-07-26T14:47:33.075Z,98080.00
2018-07-26T14:50:01.919Z,98074.00
2018-07-26T14:52:30.819Z,98054.00
2018-07-26T14:54:59.834Z,98075.00
2018-07-26T14:57:28.782Z,98074.00
2018-07-26T14:59:57.927Z,98077.00
2018-07-26T15:02:26.509Z,98074.00
2018-07-26T15:04:55.276Z,98073.00
2018-07-26T15:07:24.449Z,98074.00
2018-07-26T15:09:54.002Z,98075.00
2018-07-26T15:12:22.657Z,98083.00
2018-07-26T15:14:51.363Z,98082.00
2018-07-26T15:17:20.236Z,98081.00
2018-07-26T15:19:48.969Z,98080.00
2018-07-26T15:22:17.760Z,98078.00
2018-07-26T15:24:46.456Z,98072.00
2018-07-26T15:27:15.178Z,98070.00
2018-07-26T15:29:44.018Z,98070.00
2018-07-26T15:32:13.176Z,98072.00
2018-07-26T15:34:41.659Z,98073.00
2018-07-26T15:37:10.401Z,98075.00
2018-07-26T15:39:39.094Z,98082.00
2018-07-26T15:42:08.402Z,98082.00
2018-07-26T15:44:37.197Z,98089.00
2018-07-26T15:47:05.880Z,98091.00
2018-07-26T15:49:34.519Z,98096.00
2018-07-26T15:52:03.595Z,98098.00
2018-07-26T15:54:32.356Z,98104.00
2018-07-26T15:57:01.021Z,98107.00
2018-07-26T15:59:29.678Z,98105.00
2018-07-26T16:01:59.866Z,98102.00
2018-07-26T16:04:28.581Z,98105.00
2018-07-26T16:06:58.712Z,98110.00
2018-07-26T16:09:27.415Z,98108.00
2018-07-26T16:11:56.184Z,98121.00
2018-07-26T16:14:24.984Z,98124.00
2018-07-26T16:16:53.671Z,98142.00
2018-07-26T16:19:22.361Z,98166.00
2018-07-26T16:21:51.036Z,98161.00
2018-07-26T16:24:19.736Z,98165.00
2018-07-26T16:26:48.515Z,98171.00
2018-07-26T16:29:17.356Z,98183.00
2018-07-26T16:31:45.910Z,98193.00
2018-07-26T16:34:14.566Z,98198.00
2018-07-26T16:36:43.178Z,98204.00
2018-07-26T16:39:13.673Z,98216.00
2018-07-26T16:41:42.391Z,98221.00
2018-07-26T16:44:11.275Z,98232.00
2018-07-26T16:46:40.081Z,98239.00
2018-07-26T16:49:08.908Z,98246.00
2018-07-26T16:51:37.698Z,98246.00
2018-07-26T16:54:06.482Z,98252.00
2018-07-26T16:56:35.278Z,98260.00
2018-07-26T16:59:04.202Z,98256.00
2018-07-26T17:01:33.126Z,98251.00
2018-07-26T17:04:01.929Z,98252.00
2018-07-26T17:06:30.586Z,98256.00
2018-07-26T17:08:59.276Z,98265.00
2018-07-26T17:11:28.004Z,98275.00
2018-07-26T17:13:57.600Z,98284.00
2018-07-26T17:16:26.296Z,98282.00
2018-07-26T17:18:55.076Z,98275.00
2018-07-26T17:21:23.776Z,98273.00
2018-07-26T17:23:52.497Z,98269.00
2018-07-26T17:26:21.837Z,98269.00
2018-07-26T17:28:50.715Z,98260.00
2018-07-26T17:31:19.316Z,98268.00
2018-07-26T17:33:48.151Z,98271.00
2018-07-26T17:36:16.859Z,98275.00
2018-07-26T17:38:45.618Z,98279.00
2018-07-26T17:41:14.303Z,98276.00
2018-07-26T17:43:43.035Z,98276.00
2018-07-26T17:46:11.885Z,98269.00
2018-07-26T17:48:40.581Z,98271.00
2018-07-26T17:51:09.296Z,98274.00
2018-07-26T17:53:37.812Z,98275.00
2018-07-26T17:56:06.466Z,98281.00
2018-07-26T17:58:35.259Z,98287.00
2018-07-26T18:01:03.716Z,98283.00
2018-07-26T18:03:32.797Z,98279.00
2018-07-26T18:06:01.613Z,98279.00
2018-07-26T18:08:30.130Z,98278.00
2018-07-26T18:10:59.741Z,98284.00
2018-07-26T18:13:28.453Z,98283.00
2018-07-26T18:15:57.081Z,98280.00
2018-07-26T18:18:26.333Z,98276.00
2018-07-26T18:20:55.036Z,98276.00
2018-07-26T18:23:23.748Z,98283.00
2018-07-26T18:25:52.298Z,98283.00
2018-07-26T18:28:20.933Z,98293.00
2018-07-26T18:30:49.701Z,98296.00
2018-07-26T18:33:18.172Z,98292.00
2018-07-26T18:35:46.846Z,98293.00
2018-07-26T18:38:15.560Z,98297.00
2018-07-26T18:40:44.303Z,98306.00
2018-07-26T18:43:12.945Z,98308.00
2018-07-26T18:45:41.583Z,98314.00
2018-07-26T18:48:10.286Z,98317.00
2018-07-26T18:50:38.938Z,98315.00
2018-07-26T18:53:07.686Z,98313.00
2018-07-26T18:55:36.361Z,98316.00
2018-07-26T18:58:05.124Z,98319.00
2018-07-26T19:00:33.774Z,98324.00
2018-07-26T19:03:02.570Z,98322.00
2018-07-26T19:05:31.294Z,98318.00
2018-07-26T19:07:59.928Z,98314.00
2018-07-26T19:10:28.613Z,98320.00
2018-07-26T19:12:57.353Z,98314.00
2018-07-26T19:15:26.075Z,98316.00
2018-07-26T19:17:54.808Z,98317.00
2018-07-26T19:20:23.555Z,98320.00
2018-07-26T19:22:53.421Z,98321.00
2018-07-26T19:25:22.943Z,98325.00
2018-07-26T19:27:51.705Z,98336.00
2018-07-26T19:30:20.438Z,98350.00
2018-07-26T19:32:49.127Z,98355.00
2018-07-26T19:35:17.870Z,98362.00
2018-07-26T19:37:46.581Z,98359.00
2018-07-26T19:40:15.373Z,98355.00
2018-07-26T19:42:44.191Z,98353.00
2018-07-26T19:45:12.898Z,98363.00
2018-07-26T19:47:41.596Z,98370.00
2018-07-26T19:50:10.288Z,98372.00
2018-07-26T19:52:38.963Z,98375.00
2018-07-26T19:55:10.464Z,98373.00
2018-07-26T19:57:39.211Z,98372.00
2018-07-26T20:00:08.838Z,98370.00
2018-07-26T20:02:38.256Z,98362.00
2018-07-26T20:05:08.569Z,98362.00
2018-07-26T20:07:37.459Z,98371.00
2018-07-26T20:10:09.206Z,98380.00
2018-07-26T20:12:37.838Z,98384.00
2018-07-26T20:15:07.173Z,98384.00
2018-07-26T20:17:36.035Z,98394.00
2018-07-26T20:20:07.630Z,98398.00
2018-07-26T20:22:36.435Z,98405.00
2018-07-26T20:25:05.451Z,98405.00
2018-07-26T20:27:34.391Z,98402.00
2018-07-26T20:30:03.580Z,98400.00
2018-07-26T20:32:32.553Z,98398.00
2018-07-26T20:35:01.253Z,98407.00
2018-07-26T20:37:30.050Z,98406.00
2018-07-26T20:39:59.200Z,98407.00
2018-07-26T20:42:28.091Z,98406.00
2018-07-26T20:44:56.841Z,98406.00
2018-07-26T20:47:25.558Z,98412.00
2018-07-26T20:49:54.216Z,98407.00
2018-07-26T20:52:22.695Z,98405.00
2018-07-26T20:54:51.410Z,98410.00
2018-07-26T20:57:20.156Z,98409.00
2018-07-26T20:59:48.798Z,98410.00
2018-07-26T21:02:17.909Z,98405.00
2018-07-26T21:04:46.576Z,98401.00
2018-07-26T21:07:16.019Z,98402.00
2018-07-26T21:09:44.706Z,98404.00
2018-07-26T21:12:13.966Z,98403.00
2018-07-26T21:14:43.345Z,98401.00
2018-07-26T21:17:12.019Z,98401.00
2018-07-26T21:19:40.728Z,98402.00
2018-07-26T21:22:09.437Z,98406.00
2018-07-26T21:24:38.583Z,98415.00
2018-07-26T21:27:07.358Z,98411.00
2018-07-26T21:29:36.614Z,98414.00
2018-07-26T21:32:06.033Z,98417.00
2018-07-26T21:34:34.728Z,98414.00
2018-07-26T21:37:04.291Z,98414.00
2018-07-26T21:39:33.282Z,98412.00
2018-07-26T21:42:02.861Z,98416.00
2018-07-26T21:44:31.701Z,98419.00
2018-07-26T21:47:00.278Z,98421.00
2018-07-26T21:49:29.154Z,98419.00
2018-07-26T21:51:57.921Z,98424.00
2018-07-26T21:54:26.705Z,98428.00
2018-07-26T21:56:56.535Z,98426.00
2018-07-26T21:59:26.452Z,98431.00
2018-07-26T22:01:55.279Z,98428.00
2018-07-26T22:04:24.027Z,98422.00
2018-07-26T22:06:52.883Z,98420.00
2018-07-26T22:09:22.340Z,98421.00
2018-07-26T22:11:51.151Z,98419.00
2018-07-26T22:14:20.874Z,98416.00
2018-07-26T22:16:49.599Z,98413.00
2018-07-26T22:19:18.344Z,98412.00
2018-07-26T22:21:47.167Z,98418.00
2018-07-26T22:24:15.937Z,98416.00
2018-07-26T22:26:44.517Z,98420.00
2018-07-26T22:29:13.395Z,98422.00
2018-07-26T22:31:43.734Z,98415.00
2018-07-26T22:34:12.231Z,98421.00
2018-07-26T22:36:40.959Z,98420.00
2018-07-26T22:39:10.730Z,98418.00
2018-07-26T22:41:39.656Z,98415.00
2018-07-26T22:44:08.447Z,98417.00
2018-07-26T22:46:37.903Z,98392.00
2018-07-26T22:49:07.371Z,98410.00
2018-07-26T22:51:36.266Z,98413.00
2018-07-26T22:54:05.323Z,98418.00
2018-07-26T22:56:34.253Z,98416.00
2018-07-26T22:59:03.334Z,98419.00
2018-07-26T23:01:32.008Z,98417.00
2018-07-26T23:04:00.656Z,98412.00
2018-07-26T23:06:29.395Z,98410.00
2018-07-26T23:08:58.401Z,98411.00
2018-07-26T23:11:27.206Z,98404.00
2018-07-26T23:13:55.958Z,98401.00
2018-07-26T23:16:24.723Z,98400.00
2018-07-26T23:18:53.532Z,98398.00
2018-07-26T23:21:22.288Z,98409.00
2018-07-26T23:23:50.990Z,98407.00
2018-07-26T23:26:19.728Z,98406.00
2018-07-26T23:28:48.486Z,98408.00
2018-07-26T23:31:17.183Z,98405.00
2018-07-26T23:33:45.886Z,98399.00
2018-07-26T23:36:14.590Z,98400.00
2018-07-26T23:38:43.248Z,98396.00
2018-07-26T23:41:11.971Z,98396.00
2018-07-26T23:43:40.688Z,98397.00
2018-07-26T23:46:09.371Z,98392.00
2018-07-26T23:48:38.063Z,98391.00
2018-07-26T23:51:06.888Z,98397.00
2018-07-26T23:53:35.375Z,98403.00
2018-07-26T23:56:03.955Z,98404.00
2018-07-26T23:58:33.178Z,98404.00
